Terminal Aerodrome Forecast
Issued by NWS

Home | Current Version | Previous Version | Text Only | Print | Product List | Glossary On
Versions: 1 2 3 4 5 6 7 8 9 10 11 12 13 14 15 16 17
000
FTUS45 KABQ 140500
TAFAEG
TAF
KAEG 140526Z 1406/1506 VRB03KT P6SM BKN090
     FM142000 18006KT P6SM VCSH BKN070
      TEMPO 1422/1502 5SM -TSRA OVC040CB
     FM150200 13009KT P6SM VCSH OVC060=

USA.gov is the U.S. government's official web portal to all federal, state and local government web resources and services.